createdAt,value
2018-09-18T00:01:34.427Z,14.80
2018-09-18T00:04:03.574Z,14.70
2018-09-18T00:06:32.678Z,14.90
2018-09-18T00:09:01.803Z,15.00
2018-09-18T00:11:30.914Z,15.00
2018-09-18T00:14:00.054Z,14.60
2018-09-18T00:16:29.162Z,14.50
2018-09-18T00:18:58.295Z,14.60
2018-09-18T00:21:27.414Z,14.70
2018-09-18T00:23:56.533Z,14.40
2018-09-18T00:26:25.647Z,14.20
2018-09-18T00:28:54.878Z,14.40
2018-09-18T00:31:23.991Z,14.70
2018-09-18T00:33:53.239Z,14.60
2018-09-18T00:36:22.344Z,14.20
2018-09-18T00:38:51.481Z,14.00
2018-09-18T00:41:20.610Z,14.00
2018-09-18T00:43:50.006Z,14.40
2018-09-18T00:46:19.111Z,14.60
2018-09-18T00:48:48.247Z,14.60
2018-09-18T00:51:17.398Z,14.70
2018-09-18T00:53:46.563Z,14.60
2018-09-18T00:56:15.726Z,14.50
2018-09-18T00:58:44.838Z,14.50
2018-09-18T01:01:13.978Z,14.20
2018-09-18T01:03:43.180Z,14.10
2018-09-18T01:06:12.609Z,14.20
2018-09-18T01:08:41.881Z,14.50
2018-09-18T01:11:11.085Z,14.30
2018-09-18T01:13:40.452Z,14.40
2018-09-18T01:16:09.581Z,14.60
2018-09-18T01:18:40.217Z,14.30
2018-09-18T01:21:10.043Z,14.10
2018-09-18T01:23:39.219Z,14.10
2018-09-18T01:26:08.529Z,14.20
2018-09-18T01:28:37.699Z,14.20
2018-09-18T01:31:06.886Z,14.40
2018-09-18T01:33:36.215Z,14.30
2018-09-18T01:36:05.383Z,14.20
2018-09-18T01:38:34.479Z,14.30
2018-09-18T01:41:03.589Z,14.20
2018-09-18T01:43:32.730Z,14.30
2018-09-18T01:46:01.900Z,14.30
2018-09-18T01:48:30.986Z,14.40
2018-09-18T01:51:00.083Z,14.30
2018-09-18T01:53:29.215Z,13.90
2018-09-18T01:55:58.323Z,13.80
2018-09-18T01:58:27.416Z,13.80
2018-09-18T02:00:56.535Z,13.80
2018-09-18T02:03:25.615Z,13.90
2018-09-18T02:05:54.758Z,14.00
2018-09-18T02:08:23.838Z,13.70
2018-09-18T02:10:52.967Z,13.50
2018-09-18T02:13:22.058Z,13.50
2018-09-18T02:15:51.162Z,13.80
2018-09-18T02:18:20.530Z,13.80
2018-09-18T02:20:49.634Z,13.80
2018-09-18T02:23:18.759Z,13.80
2018-09-18T02:25:47.869Z,13.80
2018-09-18T02:28:16.947Z,13.70
2018-09-18T02:30:46.058Z,13.90
2018-09-18T02:33:15.231Z,13.80
2018-09-18T02:35:44.317Z,13.70
2018-09-18T02:38:13.503Z,13.30
2018-09-18T02:40:42.623Z,13.50
2018-09-18T02:43:11.754Z,13.50
2018-09-18T02:45:41.436Z,13.80
2018-09-18T02:48:10.589Z,14.00
2018-09-18T02:50:39.711Z,13.90
2018-09-18T02:53:08.846Z,13.80
2018-09-18T02:55:37.986Z,13.70
2018-09-18T02:58:07.127Z,13.70
2018-09-18T03:00:36.245Z,13.60
2018-09-18T03:03:05.497Z,13.50
2018-09-18T03:05:34.614Z,13.20
2018-09-18T03:08:03.770Z,13.40
2018-09-18T03:10:32.902Z,13.80
2018-09-18T03:13:02.147Z,13.40
2018-09-18T03:15:31.279Z,13.40
2018-09-18T03:18:00.418Z,13.30
2018-09-18T03:20:29.567Z,13.30
2018-09-18T03:22:58.727Z,13.40
2018-09-18T03:25:27.833Z,13.30
2018-09-18T03:27:57.055Z,13.40
2018-09-18T03:30:26.199Z,13.40
2018-09-18T03:32:55.387Z,13.60
2018-09-18T03:35:24.503Z,13.50
2018-09-18T03:37:53.655Z,13.30
2018-09-18T03:40:22.795Z,13.50
2018-09-18T03:42:52.039Z,13.40
2018-09-18T03:45:21.141Z,13.40
2018-09-18T03:47:50.283Z,13.50
2018-09-18T03:50:19.387Z,13.00
2018-09-18T03:52:48.513Z,12.90
2018-09-18T03:55:17.625Z,13.10
2018-09-18T03:57:46.762Z,13.30
2018-09-18T04:00:16.027Z,13.10
2018-09-18T04:02:46.183Z,12.90
2018-09-18T04:05:15.306Z,13.20
2018-09-18T04:07:44.426Z,13.20
2018-09-18T04:10:13.548Z,13.00
2018-09-18T04:12:42.863Z,12.80
2018-09-18T04:15:12.007Z,12.70
2018-09-18T04:17:41.187Z,13.00
2018-09-18T04:20:10.384Z,13.30
2018-09-18T04:22:39.554Z,13.40
2018-09-18T04:25:08.971Z,13.00
2018-09-18T04:27:38.502Z,12.80
2018-09-18T04:30:07.671Z,12.80
2018-09-18T04:32:36.991Z,13.00
2018-09-18T04:35:06.211Z,13.00
2018-09-18T04:37:35.309Z,13.10
2018-09-18T04:40:04.663Z,13.30
2018-09-18T04:42:33.751Z,13.40
2018-09-18T04:45:02.866Z,13.20
2018-09-18T04:47:31.942Z,13.30
2018-09-18T04:50:01.043Z,13.20
2018-09-18T04:52:30.181Z,13.10
2018-09-18T04:54:59.315Z,13.10
2018-09-18T04:57:28.489Z,13.10
2018-09-18T04:59:57.590Z,12.80
2018-09-18T05:02:26.792Z,12.90
2018-09-18T05:04:55.987Z,13.10
2018-09-18T05:07:25.127Z,13.00
2018-09-18T05:09:54.363Z,12.80
2018-09-18T05:12:23.578Z,12.90
2018-09-18T05:14:52.671Z,13.10
2018-09-18T05:17:21.760Z,13.10
2018-09-18T05:19:50.856Z,13.00
2018-09-18T05:22:19.935Z,13.00
2018-09-18T05:24:49.044Z,13.00
2018-09-18T05:27:18.126Z,13.00
2018-09-18T05:29:47.263Z,13.20
2018-09-18T05:32:16.460Z,13.20
2018-09-18T05:34:45.911Z,13.10
2018-09-18T05:37:14.995Z,13.10
2018-09-18T05:39:44.126Z,13.00
2018-09-18T05:42:13.361Z,13.00
2018-09-18T05:44:42.503Z,13.20
2018-09-18T05:47:12.027Z,13.20
2018-09-18T05:49:41.184Z,13.10
2018-09-18T05:52:10.337Z,13.20
2018-09-18T05:54:39.443Z,13.30
2018-09-18T05:57:08.619Z,13.70
2018-09-18T05:59:37.797Z,13.80
2018-09-18T06:02:06.940Z,13.70
2018-09-18T06:04:36.025Z,13.70
2018-09-18T06:07:05.123Z,14.00
2018-09-18T06:09:34.222Z,14.30
2018-09-18T06:12:03.407Z,14.30
2018-09-18T06:14:32.506Z,14.20
2018-09-18T06:17:01.599Z,14.20
2018-09-18T06:19:30.706Z,14.20
2018-09-18T06:21:59.883Z,14.30
2018-09-18T06:24:28.994Z,14.60
2018-09-18T06:26:58.088Z,14.70
2018-09-18T06:29:27.203Z,14.80
2018-09-18T06:31:56.345Z,14.90
2018-09-18T06:34:25.443Z,15.00
2018-09-18T06:36:54.544Z,15.10
2018-09-18T06:39:23.679Z,15.00
2018-09-18T06:41:52.804Z,14.90
2018-09-18T06:44:21.923Z,15.00
2018-09-18T06:46:51.025Z,15.10
2018-09-18T06:49:20.183Z,15.20
2018-09-18T06:51:49.363Z,15.30
2018-09-18T06:54:18.515Z,15.40
2018-09-18T06:56:47.674Z,15.60
2018-09-18T06:59:16.796Z,16.00
2018-09-18T07:01:45.946Z,16.50
2018-09-18T07:04:15.055Z,16.80
2018-09-18T07:06:44.174Z,16.70
2018-09-18T07:09:13.397Z,16.90
2018-09-18T07:11:42.555Z,17.30
2018-09-18T07:14:11.681Z,17.80
2018-09-18T07:16:40.874Z,18.00
2018-09-18T07:19:09.993Z,18.00
2018-09-18T07:21:39.135Z,18.20
2018-09-18T07:24:08.259Z,18.20
2018-09-18T07:26:37.395Z,18.20
2018-09-18T07:29:06.592Z,18.60
2018-09-18T07:31:35.802Z,18.90
2018-09-18T07:34:04.939Z,19.20
2018-09-18T07:36:34.079Z,19.50
2018-09-18T07:39:03.831Z,19.70
2018-09-18T07:41:33.006Z,19.70
2018-09-18T07:44:02.149Z,19.90
2018-09-18T07:49:05.430Z,20.00
2018-09-18T07:51:35.588Z,20.30
2018-09-18T07:54:04.750Z,20.70
2018-09-18T07:56:33.883Z,21.00
2018-09-18T07:59:03.177Z,20.90
2018-09-18T08:01:33.366Z,21.00
2018-09-18T08:04:02.487Z,21.40
2018-09-18T08:06:31.620Z,21.50
2018-09-18T08:09:00.722Z,21.80
2018-09-18T08:11:29.880Z,22.20
2018-09-18T08:13:58.990Z,22.00
2018-09-18T08:16:28.119Z,22.60
2018-09-18T08:18:57.331Z,22.40
2018-09-18T08:21:26.412Z,22.60
2018-09-18T08:23:55.516Z,22.60
2018-09-18T08:26:24.622Z,22.60
2018-09-18T08:28:53.762Z,22.90
2018-09-18T08:31:22.882Z,23.20
2018-09-18T08:33:52.016Z,23.00
2018-09-18T08:36:21.118Z,22.90
2018-09-18T08:38:50.267Z,23.40
2018-09-18T08:41:19.405Z,23.60
2018-09-18T08:43:48.547Z,23.60
2018-09-18T08:46:17.735Z,24.10
2018-09-18T08:48:52.412Z,23.80
2018-09-18T08:51:21.548Z,24.20
2018-09-18T08:53:50.705Z,24.70
2018-09-18T08:56:19.844Z,24.90
2018-09-18T08:58:49.647Z,24.40
2018-09-18T09:01:18.791Z,24.70
2018-09-18T09:03:48.009Z,24.90
2018-09-18T09:06:17.091Z,25.30
2018-09-18T09:08:46.316Z,24.60
2018-09-18T09:11:15.484Z,24.50
2018-09-18T09:13:44.653Z,24.70
2018-09-18T09:16:13.848Z,24.80
2018-09-18T09:18:43.019Z,24.60
2018-09-18T09:21:12.206Z,24.20
2018-09-18T09:23:41.294Z,24.00
2018-09-18T09:26:10.456Z,23.80
2018-09-18T09:28:39.583Z,23.60
2018-09-18T09:31:08.699Z,24.00
2018-09-18T09:33:37.858Z,24.70
2018-09-18T09:36:06.971Z,25.20
2018-09-18T09:38:36.139Z,25.60
2018-09-18T09:41:05.283Z,25.60
2018-09-18T09:43:34.391Z,26.00
2018-09-18T09:46:03.511Z,26.10
2018-09-18T09:48:34.192Z,26.40
2018-09-18T09:51:04.607Z,26.80
2018-09-18T09:53:34.000Z,26.90
2018-09-18T09:56:03.093Z,26.80
2018-09-18T09:58:32.174Z,27.30
2018-09-18T10:01:06.715Z,27.60
2018-09-18T10:03:35.804Z,27.30
2018-09-18T10:06:04.886Z,27.60
2018-09-18T10:08:33.973Z,27.70
2018-09-18T10:11:03.468Z,27.90
2018-09-18T10:13:33.486Z,28.10
2018-09-18T10:16:02.629Z,28.00
2018-09-18T10:18:31.817Z,27.90
2018-09-18T10:21:02.751Z,27.90
2018-09-18T10:23:31.999Z,28.10
2018-09-18T10:26:01.900Z,28.30
2018-09-18T10:28:32.014Z,28.40
2018-09-18T10:31:02.088Z,28.60
2018-09-18T10:33:31.876Z,28.30
2018-09-18T10:36:01.926Z,28.90
2018-09-18T10:38:31.994Z,29.30
2018-09-18T10:41:02.138Z,29.60
2018-09-18T10:43:31.699Z,29.70
2018-09-18T10:46:02.194Z,29.60
2018-09-18T10:48:36.248Z,28.90
2018-09-18T10:51:05.582Z,28.60
2018-09-18T10:53:34.706Z,28.30
2018-09-18T10:56:03.827Z,27.80
2018-09-18T10:58:34.116Z,28.00
2018-09-18T11:01:04.055Z,27.90
2018-09-18T11:03:34.278Z,27.70
2018-09-18T11:06:03.428Z,27.50
2018-09-18T11:08:32.555Z,27.80
2018-09-18T11:11:01.895Z,27.90
2018-09-18T11:13:31.273Z,27.60
2018-09-18T11:16:00.426Z,27.30
2018-09-18T11:18:29.675Z,27.40
2018-09-18T11:20:58.848Z,27.30
2018-09-18T11:23:28.063Z,27.00
2018-09-18T11:25:57.224Z,26.60
2018-09-18T11:28:26.279Z,26.40
2018-09-18T11:30:55.463Z,26.10
2018-09-18T11:33:24.618Z,25.90
2018-09-18T11:35:53.704Z,25.90
2018-09-18T11:38:23.853Z,25.80
2018-09-18T11:40:52.969Z,25.60
2018-09-18T11:43:22.055Z,25.30
2018-09-18T11:45:51.297Z,25.30
2018-09-18T11:48:20.295Z,25.20
2018-09-18T11:50:49.525Z,25.20
2018-09-18T11:53:18.766Z,25.20
2018-09-18T11:55:47.976Z,25.00
2018-09-18T11:58:17.201Z,25.00
2018-09-18T12:00:46.359Z,24.90
2018-09-18T12:03:15.442Z,24.60
2018-09-18T12:05:44.549Z,24.60
2018-09-18T12:08:13.627Z,24.60
2018-09-18T12:10:42.773Z,24.60
2018-09-18T12:13:11.862Z,24.60
2018-09-18T12:15:41.055Z,24.60
2018-09-18T12:18:10.267Z,24.60
2018-09-18T12:20:39.383Z,24.60
2018-09-18T12:23:08.729Z,24.60
2018-09-18T12:25:37.939Z,24.60
2018-09-18T12:28:07.183Z,24.50
2018-09-18T12:30:36.275Z,24.40
2018-09-18T12:33:05.377Z,24.30
2018-09-18T12:35:34.753Z,24.20
2018-09-18T12:38:03.774Z,24.10
2018-09-18T12:40:32.982Z,24.10
2018-09-18T12:43:02.070Z,24.10
2018-09-18T12:45:31.211Z,24.10
2018-09-18T12:48:00.339Z,24.00
2018-09-18T12:50:29.712Z,24.00
2018-09-18T12:52:58.781Z,24.00
2018-09-18T12:55:27.917Z,23.90
2018-09-18T12:57:56.997Z,23.80
2018-09-18T13:00:26.193Z,23.80
2018-09-18T13:02:55.298Z,23.90
2018-09-18T13:05:24.378Z,23.90
2018-09-18T13:07:53.517Z,24.00
2018-09-18T13:10:22.664Z,23.90
2018-09-18T13:12:51.803Z,24.00
2018-09-18T13:15:20.912Z,24.00
2018-09-18T13:17:50.003Z,24.10
2018-09-18T13:20:19.153Z,24.10
2018-09-18T13:22:48.258Z,24.20
2018-09-18T13:25:17.331Z,24.30
2018-09-18T13:27:46.483Z,24.20
2018-09-18T13:30:15.548Z,24.30
2018-09-18T13:32:44.719Z,24.70
2018-09-18T13:35:13.752Z,24.90
2018-09-18T13:37:42.855Z,25.00
2018-09-18T13:40:11.991Z,25.10
2018-09-18T13:42:41.126Z,25.50
2018-09-18T13:45:10.238Z,26.00
2018-09-18T13:47:39.354Z,26.00
2018-09-18T13:50:08.672Z,25.60
2018-09-18T13:52:37.823Z,25.60
2018-09-18T13:55:07.254Z,26.00
2018-09-18T13:57:36.490Z,26.40
2018-09-18T14:00:05.904Z,26.40
2018-09-18T14:02:35.077Z,26.80
2018-09-18T14:05:04.255Z,26.90
2018-09-18T14:07:33.402Z,26.60
2018-09-18T14:10:03.082Z,26.20
2018-09-18T14:12:32.236Z,25.90
2018-09-18T14:15:01.479Z,25.90
2018-09-18T14:17:30.487Z,26.10
2018-09-18T14:19:59.694Z,26.30
2018-09-18T14:22:28.805Z,26.30
2018-09-18T14:24:57.907Z,26.30
2018-09-18T14:27:27.031Z,26.80
2018-09-18T14:29:56.162Z,27.30
2018-09-18T14:32:26.080Z,27.60
2018-09-18T14:34:55.758Z,27.40
2018-09-18T14:37:24.885Z,27.40
2018-09-18T14:39:54.035Z,27.50
2018-09-18T14:42:23.162Z,27.50
2018-09-18T14:44:52.642Z,27.60
2018-09-18T14:47:21.816Z,27.70
2018-09-18T14:49:50.950Z,27.60
2018-09-18T14:52:20.060Z,27.40
2018-09-18T14:54:49.216Z,27.50
2018-09-18T14:57:18.323Z,27.50
2018-09-18T14:59:47.502Z,27.50
2018-09-18T15:02:16.643Z,27.60
2018-09-18T15:04:45.803Z,27.80
2018-09-18T15:07:15.138Z,28.00
2018-09-18T15:09:44.354Z,27.50
2018-09-18T15:12:13.453Z,27.60
2018-09-18T15:14:42.668Z,27.50
2018-09-18T15:17:11.710Z,27.30
2018-09-18T15:19:40.865Z,27.30
2018-09-18T15:22:09.977Z,27.40
2018-09-18T15:24:39.122Z,27.50
2018-09-18T15:27:08.222Z,27.30
2018-09-18T15:29:37.349Z,27.30
2018-09-18T15:32:06.751Z,26.90
2018-09-18T15:34:35.886Z,26.90
2018-09-18T15:37:05.242Z,26.90
2018-09-18T15:39:34.467Z,26.80
2018-09-18T15:42:03.559Z,26.90
2018-09-18T15:44:32.706Z,26.60
2018-09-18T15:47:01.850Z,26.70
2018-09-18T15:49:31.097Z,26.40
2018-09-18T15:52:00.293Z,26.40
2018-09-18T15:54:29.337Z,26.20
2018-09-18T15:56:58.449Z,26.00
2018-09-18T15:59:27.574Z,25.90
2018-09-18T16:01:56.710Z,25.90
2018-09-18T16:04:25.832Z,25.90
2018-09-18T16:06:54.954Z,25.80
2018-09-18T16:09:24.092Z,25.60
2018-09-18T16:11:53.193Z,25.40
2018-09-18T16:14:22.392Z,25.20
2018-09-18T16:16:51.544Z,25.20
2018-09-18T16:19:20.610Z,24.90
2018-09-18T16:21:49.734Z,24.90
2018-09-18T16:24:18.834Z,24.80
2018-09-18T16:26:47.974Z,24.80
2018-09-18T16:29:17.158Z,24.70
2018-09-18T16:31:46.302Z,24.60
2018-09-18T16:34:15.404Z,24.50
2018-09-18T16:36:44.560Z,24.40
2018-09-18T16:39:13.710Z,24.40
2018-09-18T16:41:42.846Z,24.30
2018-09-18T16:44:11.945Z,24.30
2018-09-18T16:46:41.100Z,24.10
2018-09-18T16:49:10.486Z,24.10
2018-09-18T16:51:39.623Z,24.10
2018-09-18T16:54:09.263Z,24.00
2018-09-18T16:56:38.382Z,23.90
2018-09-18T16:59:07.577Z,23.70
2018-09-18T17:01:36.760Z,23.50
2018-09-18T17:04:05.876Z,23.50
2018-09-18T17:06:35.064Z,23.40
2018-09-18T17:09:05.648Z,23.20
2018-09-18T17:11:34.778Z,22.90
2018-09-18T17:14:03.906Z,22.80
2018-09-18T17:16:33.125Z,22.70
2018-09-18T17:19:02.201Z,22.40
2018-09-18T17:21:31.334Z,22.20
2018-09-18T17:24:00.480Z,22.20
2018-09-18T17:26:29.618Z,22.10
2018-09-18T17:28:59.529Z,22.00
2018-09-18T17:31:28.503Z,22.00
2018-09-18T17:33:57.611Z,21.80
2018-09-18T17:36:26.717Z,21.50
2018-09-18T17:38:55.868Z,21.60
2018-09-18T17:41:25.750Z,21.60
2018-09-18T17:43:55.375Z,21.40
2018-09-18T17:46:24.800Z,21.20
2018-09-18T17:48:54.826Z,21.20
2018-09-18T17:51:23.929Z,21.30
2018-09-18T17:53:53.280Z,21.40
2018-09-18T17:56:22.586Z,21.30
2018-09-18T17:58:51.730Z,21.00
2018-09-18T18:01:20.838Z,20.80
2018-09-18T18:03:49.924Z,20.70
2018-09-18T18:06:19.472Z,20.50
2018-09-18T18:08:48.588Z,20.20
2018-09-18T18:11:17.768Z,20.30
2018-09-18T18:13:46.851Z,20.20
2018-09-18T18:16:16.242Z,20.00
2018-09-18T18:18:45.948Z,19.80
2018-09-18T18:21:15.268Z,19.70
2018-09-18T18:23:44.449Z,19.90
2018-09-18T18:26:13.649Z,20.00
2018-09-18T18:28:42.762Z,19.80
2018-09-18T18:31:11.882Z,19.80
2018-09-18T18:33:40.997Z,20.00
2018-09-18T18:36:10.173Z,19.80
2018-09-18T18:38:39.317Z,19.50
2018-09-18T18:41:08.459Z,19.30
2018-09-18T18:43:37.602Z,19.20
2018-09-18T18:46:06.793Z,19.30
2018-09-18T18:48:36.095Z,19.30
2018-09-18T18:51:05.270Z,19.40
2018-09-18T18:53:34.408Z,19.20
2018-09-18T18:56:03.550Z,19.00
2018-09-18T18:58:34.863Z,19.00
2018-09-18T19:01:04.025Z,18.90
2018-09-18T19:03:33.350Z,18.90
2018-09-18T19:06:02.479Z,18.70
2018-09-18T19:08:31.904Z,18.70
2018-09-18T19:11:01.026Z,18.60
2018-09-18T19:13:30.147Z,18.40
2018-09-18T19:15:59.264Z,18.40
2018-09-18T19:18:28.395Z,18.50
2018-09-18T19:20:57.520Z,18.50
2018-09-18T19:23:31.005Z,18.50
2018-09-18T19:26:04.368Z,18.40
2018-09-18T19:28:35.562Z,18.40
2018-09-18T19:31:06.232Z,18.50
2018-09-18T19:33:36.625Z,18.60
2018-09-18T19:36:08.616Z,18.30
2018-09-18T19:38:42.051Z,18.30
2018-09-18T19:41:12.962Z,18.50
2018-09-18T19:43:42.142Z,18.20
2018-09-18T19:46:11.279Z,18.20
2018-09-18T19:48:40.970Z,18.30
2018-09-18T19:51:10.689Z,18.30
2018-09-18T19:53:39.793Z,18.20
2018-09-18T19:56:08.930Z,18.20
2018-09-18T19:58:38.092Z,18.20
2018-09-18T20:01:07.210Z,18.40
2018-09-18T20:03:36.306Z,18.20
2018-09-18T20:06:05.456Z,17.80
2018-09-18T20:08:34.571Z,17.80
2018-09-18T20:11:03.694Z,17.90
2018-09-18T20:13:32.779Z,17.80
2018-09-18T20:16:03.655Z,17.80
2018-09-18T20:18:32.905Z,17.60
2018-09-18T20:21:02.112Z,17.90
2018-09-18T20:23:31.743Z,18.00
2018-09-18T20:26:00.869Z,18.10
2018-09-18T20:28:30.091Z,18.00
2018-09-18T20:31:00.153Z,18.10
2018-09-18T20:33:29.246Z,18.20
2018-09-18T20:35:59.314Z,18.10
2018-09-18T20:38:28.507Z,18.30
2018-09-18T20:40:57.627Z,18.50
2018-09-18T20:43:26.744Z,18.60
2018-09-18T20:45:55.867Z,18.50
2018-09-18T20:48:24.999Z,18.60
2018-09-18T20:50:54.088Z,18.90
2018-09-18T20:53:23.292Z,19.00
2018-09-18T20:55:52.427Z,19.10
2018-09-18T20:58:22.838Z,19.30
2018-09-18T21:00:52.414Z,19.50
2018-09-18T21:03:21.512Z,19.60
2018-09-18T21:05:50.791Z,19.80
2018-09-18T21:08:19.989Z,19.90
2018-09-18T21:10:49.112Z,20.00
2018-09-18T21:13:18.931Z,19.90
2018-09-18T21:15:48.662Z,19.90
2018-09-18T21:18:17.887Z,19.90
2018-09-18T21:20:47.015Z,19.90
2018-09-18T21:23:16.107Z,19.90
2018-09-18T21:26:17.206Z,19.90
2018-09-18T21:28:46.480Z,19.90
2018-09-18T21:31:15.661Z,19.80
2018-09-18T21:33:44.760Z,19.80
2018-09-18T21:36:14.734Z,19.70
2018-09-18T21:38:43.895Z,19.70
2018-09-18T21:41:13.057Z,19.70
2018-09-18T21:43:42.184Z,19.70
2018-09-18T21:46:11.367Z,19.70
2018-09-18T21:48:40.529Z,19.60
2018-09-18T21:51:09.976Z,19.50
2018-09-18T21:53:39.127Z,19.50
2018-09-18T21:56:08.502Z,19.30
2018-09-18T21:58:37.794Z,19.00
2018-09-18T22:01:07.373Z,19.00
2018-09-18T22:03:36.521Z,19.00
2018-09-18T22:06:05.873Z,19.10
2018-09-18T22:08:36.720Z,19.20
2018-09-18T22:11:06.220Z,19.20
2018-09-18T22:13:35.343Z,19.20
2018-09-18T22:16:04.474Z,19.00
2018-09-18T22:18:33.701Z,18.80
2018-09-18T22:21:02.847Z,18.90
2018-09-18T22:23:32.009Z,18.90
2018-09-18T22:26:01.642Z,19.10
2018-09-18T22:28:31.498Z,19.00
2018-09-18T22:31:00.591Z,18.90
2018-09-18T22:33:30.306Z,18.80
2018-09-18T22:35:59.408Z,18.80
2018-09-18T22:38:29.477Z,18.70
2018-09-18T22:40:59.232Z,18.80
2018-09-18T22:43:28.446Z,18.80
2018-09-18T22:45:57.548Z,18.70
2018-09-18T22:48:26.810Z,18.50
2018-09-18T22:50:56.142Z,18.30
2018-09-18T22:53:25.418Z,18.20
2018-09-18T22:55:54.630Z,18.30
2018-09-18T22:58:24.935Z,18.40
2018-09-18T23:00:54.235Z,18.50
2018-09-18T23:03:23.970Z,18.10
2018-09-18T23:05:53.145Z,18.00
2018-09-18T23:08:22.270Z,17.80
2018-09-18T23:10:51.387Z,18.00
2018-09-18T23:13:20.539Z,18.10
2018-09-18T23:15:50.508Z,18.00
2018-09-18T23:18:19.676Z,17.90
2018-09-18T23:20:50.062Z,18.10
2018-09-18T23:23:19.191Z,18.10
2018-09-18T23:25:48.309Z,17.90
2018-09-18T23:28:17.728Z,17.80
2018-09-18T23:30:46.827Z,17.70
2018-09-18T23:33:16.043Z,17.60
2018-09-18T23:35:45.222Z,17.60
2018-09-18T23:38:14.383Z,17.70
2018-09-18T23:40:43.673Z,17.80
2018-09-18T23:43:14.029Z,17.50
2018-09-18T23:45:43.346Z,17.30
2018-09-18T23:48:12.467Z,17.40
2018-09-18T23:50:41.597Z,17.40
2018-09-18T23:53:11.221Z,17.30
2018-09-18T23:55:40.362Z,17.30
2018-09-18T23:58:09.476Z,17.30
